Time;durP1;ratioP1;P1;durP2;ratioP2;P2;SDS_P1;SDS_P2;PMS_P1;PMS_P2;Temp;Humidity;BMP_temperature;BMP_pressure;BME280_temperature;BME280_humidity;BME280_pressure;Samples;Min_cycle;Max_cycle;Signal;HPM_P1;HPM_P2
2022/03/17 00:01:32;;;;;;;43.90;26.57;;;9.40;99.90;;;;;;4989590;28;20863;-54
2022/03/17 00:04:03;;;;;;;43.40;26.63;;;9.40;99.90;;;;;;4990146;28;20528;-53
2022/03/17 00:06:29;;;;;;;39.85;26.80;;;9.40;99.90;;;;;;4989372;28;20446;-54
2022/03/17 00:08:55;;;;;;;43.33;27.63;;;9.40;99.90;;;;;;4990210;28;20422;-57
2022/03/17 00:11:22;;;;;;;41.10;27.00;;;9.50;99.90;;;;;;4989287;28;20383;-54
2022/03/17 00:13:48;;;;;;;44.00;27.60;;;9.40;99.90;;;;;;4990008;28;20482;-54
2022/03/17 00:16:13;;;;;;;45.67;28.50;;;9.40;99.90;;;;;;4989816;28;20465;-54
2022/03/17 00:18:39;;;;;;;39.83;26.05;;;9.50;99.90;;;;;;4989796;28;20386;-54
2022/03/17 00:21:04;;;;;;;44.70;26.97;;;9.50;99.90;;;;;;4989781;28;20442;-54
2022/03/17 00:23:30;;;;;;;43.13;27.35;;;9.60;99.90;;;;;;4988021;28;20433;-54
2022/03/17 00:25:57;;;;;;;43.47;26.77;;;9.40;99.90;;;;;;4990348;28;20817;-53
2022/03/17 00:28:22;;;;;;;41.53;26.20;;;9.40;99.90;;;;;;4993040;28;20378;-53
2022/03/17 00:30:48;;;;;;;43.15;27.70;;;9.50;99.90;;;;;;4993853;28;20791;-54
2022/03/17 00:33:14;;;;;;;44.30;27.50;;;9.50;99.90;;;;;;4993353;28;20787;-53
2022/03/17 00:35:42;;;;;;;41.83;26.77;;;9.50;99.90;;;;;;4993211;28;20382;-54
2022/03/17 00:38:11;;;;;;;40.25;26.40;;;9.40;99.90;;;;;;4993578;28;20489;-53
2022/03/17 00:40:39;;;;;;;42.88;26.60;;;9.30;99.90;;;;;;4992665;28;20386;-53
2022/03/17 00:43:06;;;;;;;43.27;26.33;;;9.20;99.90;;;;;;4993234;28;20394;-54
2022/03/17 00:45:33;;;;;;;43.70;27.20;;;9.10;99.90;;;;;;4992656;28;20386;-53
2022/03/17 00:47:59;;;;;;;44.35;27.60;;;9.10;99.90;;;;;;4993449;28;20489;-53
2022/03/17 00:50:25;;;;;;;43.73;27.37;;;9.10;99.90;;;;;;4992557;28;20529;-53
2022/03/17 00:52:51;;;;;;;45.10;28.05;;;9.20;99.90;;;;;;4993360;28;20425;-53
2022/03/17 00:55:17;;;;;;;48.00;28.13;;;9.20;99.90;;;;;;4992746;28;21238;-53
2022/03/17 00:57:43;;;;;;;44.90;28.48;;;9.20;99.90;;;;;;4993149;28;20382;-54
2022/03/17 01:00:14;;;;;;;43.27;27.10;;;9.10;99.90;;;;;;4993293;28;20398;-53
2022/03/17 01:02:43;;;;;;;45.45;28.67;;;9.20;99.90;;;;;;4992544;28;20747;-53
2022/03/17 01:05:12;;;;;;;48.65;28.35;;;9.10;99.90;;;;;;4992804;28;20397;-54
2022/03/17 01:07:38;;;;;;;47.38;29.05;;;9.20;99.90;;;;;;4992147;28;20464;-53
2022/03/17 01:10:05;;;;;;;47.20;29.00;;;9.10;99.90;;;;;;4993137;28;20387;-53
2022/03/17 01:12:32;;;;;;;43.70;27.90;;;8.90;99.90;;;;;;4992052;28;20383;-53
2022/03/17 01:15:00;;;;;;;46.80;28.88;;;8.90;99.90;;;;;;4992962;28;20387;-53
2022/03/17 01:17:26;;;;;;;46.53;28.50;;;8.90;99.90;;;;;;4991954;28;20489;-53
2022/03/17 01:19:52;;;;;;;46.15;27.88;;;8.90;99.90;;;;;;4992256;28;20406;-53
2022/03/17 01:22:18;;;;;;;49.63;30.20;;;8.80;99.90;;;;;;4992035;28;20466;-53
2022/03/17 01:24:45;;;;;;;47.53;28.52;;;8.70;99.90;;;;;;4993255;28;20432;-53
2022/03/17 01:27:11;;;;;;;50.17;29.23;;;9.60;99.90;;;;;;4992599;28;20426;-53
2022/03/17 01:29:41;;;;;;;45.97;28.13;;;8.70;99.90;;;;;;4991889;28;20561;-53
2022/03/17 01:32:07;;;;;;;48.42;29.67;;;8.70;99.90;;;;;;4992575;28;20378;-53
2022/03/17 01:34:33;;;;;;;47.22;28.35;;;8.70;99.90;;;;;;4991659;28;20391;-53
2022/03/17 01:36:59;;;;;;;48.33;30.87;;;8.60;99.90;;;;;;4991651;28;20390;-53
2022/03/17 01:39:25;;;;;;;47.53;30.13;;;8.50;99.90;;;;;;4991458;28;20479;-53
2022/03/17 01:41:50;;;;;;;47.60;28.60;;;8.60;99.90;;;;;;4992411;28;20534;-53
2022/03/17 01:44:16;;;;;;;46.85;28.95;;;8.70;99.90;;;;;;4991850;28;20425;-54
2022/03/17 01:49:26;;;;;;;50.65;28.75;;;8.70;99.90;;;;;;4991160;28;20484;-53
2022/03/17 01:51:52;;;;;;;48.80;28.55;;;8.70;99.90;;;;;;4992404;28;20411;-53
2022/03/17 01:54:20;;;;;;;49.47;29.17;;;8.70;99.90;;;;;;4991616;28;20768;-54
2022/03/17 01:56:47;;;;;;;48.92;30.60;;;8.80;99.90;;;;;;4991941;28;20413;-53
2022/03/17 01:59:13;;;;;;;49.70;29.67;;;9.40;99.90;;;;;;4992089;28;20441;-54
2022/03/17 02:01:38;;;;;;;46.65;28.83;;;9.00;99.90;;;;;;4991180;28;20386;-54
2022/03/17 02:04:05;;;;;;;48.10;29.13;;;9.00;99.90;;;;;;4992129;28;20990;-54
2022/03/17 02:06:31;;;;;;;50.22;29.83;;;9.10;99.90;;;;;;4990968;28;20410;-54
2022/03/17 02:08:57;;;;;;;47.92;27.75;;;9.10;99.90;;;;;;4992133;28;20878;-54
2022/03/17 02:14:07;;;;;;;47.22;29.70;;;9.00;99.90;;;;;;4991602;28;20429;-54
2022/03/17 02:16:33;;;;;;;46.30;28.57;;;9.00;99.90;;;;;;4990753;28;20437;-55
2022/03/17 02:18:59;;;;;;;47.42;28.92;;;8.90;99.90;;;;;;4991852;28;20844;-53
2022/03/17 02:21:29;;;;;;;48.88;29.92;;;8.90;99.90;;;;;;4990813;28;20437;-54
2022/03/17 02:26:40;;;;;;;50.50;30.00;;;8.40;99.90;;;;;;4990602;28;20480;-52
2022/03/17 02:29:07;;;;;;;45.38;27.77;;;8.90;99.90;;;;;;4991415;28;20856;-52
2022/03/17 02:31:34;;;;;;;46.58;28.50;;;8.90;99.90;;;;;;4990702;28;20440;-52
2022/03/17 02:34:00;;;;;;;50.72;29.73;;;9.10;99.90;;;;;;4991217;28;20389;-52
2022/03/17 02:36:26;;;;;;;51.30;28.87;;;9.00;99.90;;;;;;4989218;28;20394;-52
2022/03/17 02:38:51;;;;;;;47.03;28.97;;;9.10;99.90;;;;;;4991336;28;20437;-52
2022/03/17 02:41:22;;;;;;;42.67;27.77;;;9.20;99.90;;;;;;4991070;28;20409;-52
2022/03/17 02:43:52;;;;;;;45.20;28.30;;;9.20;99.90;;;;;;4991278;28;20477;-54
2022/03/17 02:46:18;;;;;;;47.13;28.13;;;9.20;99.90;;;;;;4990537;28;20414;-54
2022/03/17 02:48:44;;;;;;;50.55;29.63;;;9.20;99.90;;;;;;4990398;28;20383;-53
2022/03/17 02:51:11;;;;;;;47.58;28.65;;;9.20;99.90;;;;;;4991029;28;20397;-53
2022/03/17 02:53:37;;;;;;;47.55;28.80;;;9.20;99.90;;;;;;4990174;28;20482;-52
2022/03/17 02:56:02;;;;;;;46.00;28.27;;;9.20;99.90;;;;;;4991149;28;20779;-53
2022/03/17 02:58:31;;;;;;;48.80;29.00;;;9.20;99.90;;;;;;4988900;28;20394;-52
2022/03/17 03:00:57;;;;;;;48.80;28.60;;;9.20;99.90;;;;;;4990803;28;20391;-52
2022/03/17 03:03:23;;;;;;;46.17;27.83;;;9.20;99.90;;;;;;4990277;28;20875;-53
2022/03/17 03:05:49;;;;;;;46.03;27.53;;;8.10;99.90;;;;;;4990431;28;20441;-52
2022/03/17 03:08:15;;;;;;;45.75;26.73;;;8.90;99.90;;;;;;4990590;28;20419;-52
2022/03/17 03:10:41;;;;;;;46.05;27.45;;;8.80;99.90;;;;;;4990329;28;20458;-52
2022/03/17 03:13:07;;;;;;;46.05;26.70;;;8.80;99.90;;;;;;4990604;28;20383;-52
2022/03/17 03:15:33;;;;;;;47.47;27.65;;;8.80;99.90;;;;;;4989714;28;20389;-51
2022/03/17 03:17:59;;;;;;;45.28;26.55;;;8.80;99.90;;;;;;4990767;28;20393;-52
2022/03/17 03:20:25;;;;;;;42.97;26.75;;;8.80;99.90;;;;;;4989661;28;20410;-52
2022/03/17 03:22:51;;;;;;;44.80;27.00;;;8.70;99.90;;;;;;4989845;28;20399;-52
2022/03/17 03:25:17;;;;;;;45.90;27.30;;;8.70;99.90;;;;;;4990560;28;20457;-51
2022/03/17 03:27:43;;;;;;;44.22;26.48;;;8.80;99.90;;;;;;4990091;28;20425;-52
2022/03/17 03:30:13;;;;;;;44.15;25.38;;;8.80;99.90;;;;;;4990489;28;20449;-51
2022/03/17 03:32:47;;;;;;;43.25;26.42;;;8.90;99.90;;;;;;5008554;28;20568;-52
2022/03/17 03:37:58;;;;;;;48.90;27.65;;;8.90;99.90;;;;;;5009961;28;20435;-52
2022/03/17 03:40:24;;;;;;;45.95;26.45;;;8.90;99.90;;;;;;5009207;28;20400;-52
2022/03/17 03:42:50;;;;;;;46.35;27.17;;;8.90;99.90;;;;;;5010059;28;20421;-52
2022/03/17 03:45:16;;;;;;;44.80;26.23;;;8.90;99.90;;;;;;5008247;28;20416;-52
2022/03/17 03:47:42;;;;;;;43.30;26.17;;;8.90;99.90;;;;;;5009415;28;20408;-51
2022/03/17 03:50:09;;;;;;;46.03;26.92;;;9.00;99.90;;;;;;5009767;28;20487;-52
2022/03/17 03:52:34;;;;;;;44.70;26.37;;;8.90;99.90;;;;;;5009092;28;20492;-52
2022/03/17 03:55:00;;;;;;;42.83;25.58;;;8.90;99.90;;;;;;5009718;28;20464;-52
2022/03/17 03:57:25;;;;;;;45.57;26.10;;;8.90;99.90;;;;;;5009565;28;20389;-52
2022/03/17 03:59:51;;;;;;;44.75;26.08;;;8.90;99.90;;;;;;5009812;28;20488;-52
2022/03/17 04:02:17;;;;;;;44.47;26.47;;;8.90;99.90;;;;;;5012976;28;20395;-52
2022/03/17 04:04:42;;;;;;;44.17;25.70;;;8.90;99.90;;;;;;4998327;28;20798;-51
2022/03/17 04:07:10;;;;;;;44.92;26.88;;;9.00;99.90;;;;;;5000509;28;20417;-52
2022/03/17 04:09:41;;;;;;;44.83;27.50;;;9.00;99.90;;;;;;5011636;28;20416;-51
2022/03/17 04:12:11;;;;;;;45.40;26.17;;;9.00;99.90;;;;;;5013621;28;20373;-52
2022/03/17 04:14:38;;;;;;;44.35;26.63;;;9.00;99.90;;;;;;5012954;28;20388;-52
2022/03/17 04:17:04;;;;;;;46.95;27.27;;;9.00;99.90;;;;;;5012918;28;20392;-52
2022/03/17 04:19:30;;;;;;;46.73;26.63;;;9.00;99.90;;;;;;5012346;28;20407;-52
2022/03/17 04:21:56;;;;;;;45.17;26.40;;;9.00;99.90;;;;;;5013616;28;20381;-52
2022/03/17 04:24:22;;;;;;;44.25;26.25;;;9.10;99.90;;;;;;5012545;28;20460;-51
2022/03/17 04:26:48;;;;;;;45.80;26.55;;;9.00;99.90;;;;;;5013349;28;20467;-52
2022/03/17 04:29:14;;;;;;;44.47;26.70;;;9.00;99.90;;;;;;5013312;28;20387;-52
2022/03/17 04:31:42;;;;;;;42.75;25.63;;;8.90;99.90;;;;;;5011721;28;20403;-52
2022/03/17 04:34:09;;;;;;;46.17;27.35;;;9.00;99.90;;;;;;5013224;28;20384;-51
2022/03/17 04:36:36;;;;;;;40.80;25.35;;;9.00;99.90;;;;;;5012257;28;20381;-52
2022/03/17 04:39:03;;;;;;;48.08;26.27;;;8.90;99.90;;;;;;5013083;28;20383;-52
2022/03/17 04:41:29;;;;;;;44.38;26.05;;;8.80;99.90;;;;;;5012277;28;20391;-51
2022/03/17 04:43:55;;;;;;;47.83;26.48;;;8.80;99.90;;;;;;5012611;28;20762;-52
2022/03/17 04:46:21;;;;;;;42.30;24.85;;;8.80;99.90;;;;;;5012103;28;20409;-52
2022/03/17 04:48:47;;;;;;;44.30;25.83;;;8.90;99.90;;;;;;5012311;28;20504;-52
2022/03/17 04:51:12;;;;;;;47.33;26.90;;;8.80;99.90;;;;;;4993005;28;20787;-52
2022/03/17 04:53:38;;;;;;;47.33;25.80;;;8.80;99.90;;;;;;5009139;28;20389;-52
2022/03/17 04:56:04;;;;;;;48.37;27.33;;;8.80;99.90;;;;;;4995469;28;20786;-52
2022/03/17 04:58:31;;;;;;;44.95;26.42;;;8.80;99.90;;;;;;5009719;28;20393;-52
2022/03/17 05:00:57;;;;;;;45.05;25.65;;;8.90;99.90;;;;;;5012839;28;20472;-52
2022/03/17 05:03:23;;;;;;;45.50;26.50;;;8.90;99.90;;;;;;5012060;28;20900;-52
2022/03/17 05:05:49;;;;;;;47.00;26.25;;;8.80;99.90;;;;;;5012328;28;20471;-52
2022/03/17 05:08:15;;;;;;;44.35;25.58;;;8.90;99.90;;;;;;5012697;28;20381;-52
2022/03/17 05:10:41;;;;;;;45.00;25.73;;;8.90;99.90;;;;;;5010794;28;21091;-52
2022/03/17 05:13:09;;;;;;;47.20;26.93;;;8.90;99.90;;;;;;5010489;28;20476;-52
2022/03/17 05:15:36;;;;;;;45.45;27.20;;;8.90;99.90;;;;;;5011729;28;20389;-52
2022/03/17 05:18:03;;;;;;;47.85;27.50;;;8.90;99.90;;;;;;5012177;28;20451;-52
2022/03/17 05:20:29;;;;;;;47.47;26.92;;;9.00;99.90;;;;;;5011068;28;20878;-52
2022/03/17 05:22:55;;;;;;;46.10;27.23;;;9.00;99.90;;;;;;5012185;28;20397;-52
2022/03/17 05:25:21;;;;;;;46.38;26.58;;;8.90;99.90;;;;;;5010303;28;20408;-52
2022/03/17 05:27:49;;;;;;;47.63;26.93;;;8.90;99.90;;;;;;4994240;28;20821;-52
2022/03/17 05:30:16;;;;;;;49.50;27.13;;;8.90;99.90;;;;;;5012128;28;20404;-52
2022/03/17 05:32:47;;;;;;;45.28;26.60;;;9.00;99.90;;;;;;5010692;28;20440;-52
2022/03/17 05:35:14;;;;;;;45.92;27.98;;;8.80;99.90;;;;;;5011278;28;20491;-52
2022/03/17 05:37:40;;;;;;;46.00;27.23;;;8.80;99.90;;;;;;5010638;28;20389;-52
2022/03/17 05:40:09;;;;;;;49.75;26.65;;;8.80;99.90;;;;;;5011013;28;20404;-52
2022/03/17 05:42:36;;;;;;;46.20;26.90;;;8.70;99.90;;;;;;5009790;28;20408;-51
2022/03/17 05:45:03;;;;;;;51.40;28.50;;;8.60;99.90;;;;;;5011147;28;20391;-51
2022/03/17 05:47:35;;;;;;;46.70;26.90;;;8.70;99.90;;;;;;5009371;28;20902;-51
2022/03/17 05:50:02;;;;;;;45.45;26.60;;;8.80;99.90;;;;;;5010590;28;20404;-52
2022/03/17 05:52:28;;;;;;;46.45;27.00;;;8.90;99.90;;;;;;5010756;28;20377;-52
2022/03/17 05:54:54;;;;;;;49.50;27.50;;;9.00;99.90;;;;;;5010936;28;20391;-52
2022/03/17 05:57:19;;;;;;;47.78;25.67;;;9.00;99.90;;;;;;5011139;28;20392;-52
2022/03/17 05:59:45;;;;;;;49.57;27.90;;;9.10;99.90;;;;;;5010479;28;20381;-52
2022/03/17 06:02:11;;;;;;;47.05;29.10;;;9.00;99.90;;;;;;5011139;28;20431;-51
2022/03/17 06:04:37;;;;;;;50.13;28.70;;;9.00;99.90;;;;;;5010417;28;20431;-53
2022/03/17 06:07:03;;;;;;;48.72;27.08;;;8.90;99.90;;;;;;5010972;28;20447;-52
2022/03/17 06:09:29;;;;;;;45.90;26.50;;;9.00;99.90;;;;;;5009841;28;20906;-52
2022/03/17 06:11:57;;;;;;;45.23;25.40;;;8.90;99.90;;;;;;5010529;28;20451;-51
2022/03/17 06:14:26;;;;;;;44.03;26.67;;;8.80;99.90;;;;;;5010331;28;20493;-52
2022/03/17 06:16:52;;;;;;;49.57;28.83;;;9.00;99.90;;;;;;5011239;28;20930;-52
2022/03/17 06:19:19;;;;;;;49.93;26.80;;;8.80;99.90;;;;;;5011010;28;20470;-52
2022/03/17 06:21:45;;;;;;;48.78;26.60;;;8.90;99.90;;;;;;5010193;28;20939;-52
2022/03/17 06:24:11;;;;;;;51.15;28.50;;;8.80;99.90;;;;;;5009944;28;20389;-52
2022/03/17 06:26:36;;;;;;;48.07;26.70;;;8.90;99.90;;;;;;5009598;28;20439;-52
2022/03/17 06:29:02;;;;;;;47.13;27.55;;;9.00;99.90;;;;;;4993106;28;20395;-52
2022/03/17 06:31:30;;;;;;;44.90;26.48;;;9.00;99.90;;;;;;5009109;28;21337;-52
2022/03/17 06:33:55;;;;;;;47.60;27.20;;;9.10;99.90;;;;;;5009903;28;20393;-52
2022/03/17 06:36:22;;;;;;;49.77;26.80;;;9.20;99.90;;;;;;5010537;28;20389;-52
2022/03/17 06:38:48;;;;;;;48.03;27.58;;;9.30;99.90;;;;;;5010423;28;20443;-52
2022/03/17 06:41:14;;;;;;;43.47;25.63;;;9.30;99.90;;;;;;4993368;28;20392;-52
2022/03/17 06:43:39;;;;;;;45.90;27.40;;;9.30;99.90;;;;;;5010164;28;20385;-54
2022/03/17 06:46:05;;;;;;;49.00;28.63;;;9.30;99.90;;;;;;5010808;28;20904;-52
2022/03/17 06:48:31;;;;;;;45.60;27.57;;;9.30;99.90;;;;;;5009789;28;20421;-52
2022/03/17 06:50:57;;;;;;;45.70;26.88;;;9.30;99.90;;;;;;5010678;28;20396;-52
2022/03/17 06:53:22;;;;;;;49.88;29.08;;;9.40;99.90;;;;;;5010079;28;20884;-52
2022/03/17 06:55:48;;;;;;;47.13;26.67;;;9.50;99.90;;;;;;5005360;28;20408;-53
2022/03/17 06:58:14;;;;;;;51.35;28.75;;;9.50;99.90;;;;;;5005621;28;20409;-52
2022/03/17 07:00:45;;;;;;;50.97;28.30;;;9.50;99.90;;;;;;5008617;28;20413;-53
2022/03/17 07:03:11;;;;;;;51.90;27.75;;;9.60;99.90;;;;;;5009857;28;20482;-53
2022/03/17 07:05:36;;;;;;;44.65;26.15;;;9.60;99.90;;;;;;5000954;28;20392;-52
2022/03/17 07:08:02;;;;;;;49.17;28.50;;;9.70;99.90;;;;;;5010201;28;20459;-53
2022/03/17 07:10:28;;;;;;;47.28;27.77;;;9.60;99.90;;;;;;4991557;28;20420;-53
2022/03/17 07:12:54;;;;;;;50.38;27.50;;;9.60;99.90;;;;;;5009631;28;20384;-53
2022/03/17 07:15:20;;;;;;;46.20;27.47;;;9.70;99.90;;;;;;5009565;28;20755;-53
2022/03/17 07:17:46;;;;;;;49.20;28.25;;;9.80;99.90;;;;;;5009403;28;20416;-53
2022/03/17 07:20:14;;;;;;;50.80;29.48;;;9.90;99.90;;;;;;5009201;28;20423;-53
2022/03/17 07:22:42;;;;;;;48.88;28.45;;;10.10;99.90;;;;;;5006283;28;20429;-53
2022/03/17 07:25:09;;;;;;;47.53;28.47;;;10.10;99.90;;;;;;5010227;28;20389;-52
2022/03/17 07:27:43;;;;;;;48.17;27.48;;;9.90;99.90;;;;;;5009264;28;20413;-53
2022/03/17 07:30:20;;;;;;;57.83;29.75;;;10.00;99.90;;;;;;5009780;28;20393;-53
2022/03/17 07:32:55;;;;;;;47.53;26.95;;;10.20;99.90;;;;;;5009106;28;20492;-53
2022/03/17 07:35:22;;;;;;;49.97;28.50;;;10.20;99.90;;;;;;5009149;28;20403;-53
2022/03/17 07:37:49;;;;;;;49.10;28.33;;;10.20;99.90;;;;;;5009873;28;20417;-53
2022/03/17 07:40:15;;;;;;;48.38;28.90;;;10.20;99.90;;;;;;5009486;28;20385;-53
2022/03/17 07:42:41;;;;;;;47.20;29.05;;;10.40;99.90;;;;;;5008820;28;21151;-53
2022/03/17 07:45:06;;;;;;;49.43;28.57;;;10.40;99.90;;;;;;5009600;28;20384;-53
2022/03/17 07:47:33;;;;;;;50.30;28.52;;;10.50;99.90;;;;;;4991120;28;20404;-53
2022/03/17 07:50:00;;;;;;;51.33;28.45;;;10.50;99.90;;;;;;5009464;28;20409;-53
2022/03/17 07:52:27;;;;;;;47.60;28.53;;;10.50;99.90;;;;;;5008876;28;20874;-53
2022/03/17 07:54:53;;;;;;;50.53;29.10;;;10.50;99.90;;;;;;5008645;28;20397;-53
2022/03/17 07:57:19;;;;;;;53.78;30.27;;;10.40;99.90;;;;;;5009769;28;20393;-53
2022/03/17 07:59:45;;;;;;;47.75;28.63;;;10.40;99.90;;;;;;5009203;28;20520;-53
2022/03/17 08:02:11;;;;;;;47.63;27.77;;;10.40;99.90;;;;;;5009550;28;20399;-52
2022/03/17 08:04:37;;;;;;;53.28;29.75;;;10.40;99.90;;;;;;5008193;28;20739;-53
2022/03/17 08:07:03;;;;;;;51.95;31.52;;;10.50;99.90;;;;;;5009561;28;20409;-53
2022/03/17 08:09:30;;;;;;;46.78;28.00;;;10.50;99.90;;;;;;5009023;28;20400;-52
2022/03/17 08:11:55;;;;;;;49.53;28.30;;;10.50;99.90;;;;;;5009700;28;20385;-53
2022/03/17 08:14:21;;;;;;;52.70;28.55;;;10.40;99.90;;;;;;5009799;28;20746;-53
2022/03/17 08:16:47;;;;;;;49.80;27.80;;;10.40;99.90;;;;;;5009154;28;20385;-53
2022/03/17 08:19:13;;;;;;;48.85;28.30;;;10.50;99.90;;;;;;5009013;28;20408;-53
2022/03/17 08:21:40;;;;;;;46.90;28.02;;;10.50;99.90;;;;;;5008359;28;20890;-53
2022/03/17 08:24:06;;;;;;;50.85;28.80;;;10.60;99.90;;;;;;5009576;28;20412;-53
2022/03/17 08:26:33;;;;;;;49.08;28.98;;;10.50;99.90;;;;;;5008686;28;20491;-53
2022/03/17 08:28:59;;;;;;;46.22;27.95;;;10.70;99.90;;;;;;5009991;28;20424;-53
2022/03/17 08:31:25;;;;;;;49.47;29.02;;;10.70;99.90;;;;;;5009108;28;20431;-53
2022/03/17 08:33:50;;;;;;;52.25;29.15;;;10.70;99.90;;;;;;5009101;28;20377;-53
2022/03/17 08:36:17;;;;;;;46.57;27.53;;;10.70;99.90;;;;;;5009534;28;20487;-52
2022/03/17 08:38:42;;;;;;;48.25;28.48;;;10.60;99.90;;;;;;5008865;28;21232;-53
2022/03/17 08:41:08;;;;;;;50.58;29.42;;;10.60;99.90;;;;;;5009273;28;20377;-54
2022/03/17 08:43:34;;;;;;;45.75;28.80;;;10.70;99.90;;;;;;5008852;28;20999;-53
2022/03/17 08:51:28;;;;;;;47.60;27.90;;;10.80;99.90;;;;;;5011996;28;20495;-52
2022/03/17 08:53:56;;;;;;;48.85;29.42;;;10.80;99.90;;;;;;5013321;28;20933;-53
2022/03/17 08:56:22;;;;;;;47.53;28.40;;;11.00;99.90;;;;;;5012803;28;20381;-53
2022/03/17 08:58:48;;;;;;;46.65;26.80;;;10.90;99.90;;;;;;5012652;28;20408;-53
2022/03/17 09:01:13;;;;;;;48.00;28.40;;;11.10;99.90;;;;;;5012378;28;20446;-53
2022/03/17 09:03:39;;;;;;;47.85;28.02;;;11.20;99.90;;;;;;5011287;28;20432;-53
2022/03/17 09:06:05;;;;;;;51.90;29.27;;;11.30;99.90;;;;;;4994800;28;20902;-53
2022/03/17 09:08:31;;;;;;;48.28;28.60;;;11.30;99.90;;;;;;4994035;28;20381;-53
2022/03/17 09:10:57;;;;;;;47.17;27.97;;;11.30;99.90;;;;;;5012345;28;20385;-53
2022/03/17 09:13:28;;;;;;;48.40;28.35;;;11.30;99.90;;;;;;5012291;28;20396;-51
2022/03/17 09:15:54;;;;;;;48.05;29.00;;;11.40;99.90;;;;;;5012426;28;20373;-52
2022/03/17 09:18:21;;;;;;;47.83;29.20;;;11.40;99.90;;;;;;5012359;28;20377;-52
2022/03/17 09:20:48;;;;;;;50.50;29.97;;;11.50;99.90;;;;;;5011195;28;20405;-52
2022/03/17 09:23:14;;;;;;;48.35;28.83;;;11.70;99.90;;;;;;5011628;28;20712;-52
2022/03/17 09:25:40;;;;;;;48.37;28.90;;;11.60;99.90;;;;;;5011317;28;20392;-52
2022/03/17 09:28:06;;;;;;;49.33;28.92;;;11.70;99.90;;;;;;5011862;28;20427;-52
2022/03/17 09:30:32;;;;;;;51.10;28.25;;;11.80;99.90;;;;;;5011305;28;20476;-51
2022/03/17 09:32:59;;;;;;;50.90;29.27;;;11.90;99.90;;;;;;4994664;28;20866;-52
2022/03/17 09:35:26;;;;;;;47.90;29.35;;;11.90;99.90;;;;;;5011909;28;20885;-52
2022/03/17 09:37:52;;;;;;;48.70;29.02;;;12.00;99.90;;;;;;5011590;28;20466;-52
2022/03/17 09:40:17;;;;;;;47.95;28.83;;;12.20;99.90;;;;;;5011970;28;20392;-52
2022/03/17 09:42:43;;;;;;;47.13;29.05;;;12.40;99.90;;;;;;5011494;28;21161;-52
2022/03/17 09:45:10;;;;;;;48.08;29.00;;;12.60;99.90;;;;;;5011833;28;20446;-52
2022/03/17 09:47:41;;;;;;;46.88;28.00;;;12.70;99.90;;;;;;5011142;28;20416;-52
2022/03/17 09:50:09;;;;;;;53.63;29.87;;;12.70;99.90;;;;;;5011373;28;20774;-52
2022/03/17 09:52:37;;;;;;;51.33;29.33;;;12.70;99.90;;;;;;5010938;28;20401;-52
2022/03/17 09:55:04;;;;;;;46.73;28.77;;;12.90;99.90;;;;;;5011400;28;20882;-52
2022/03/17 09:57:31;;;;;;;53.92;34.83;;;13.00;99.90;;;;;;4977044;28;20400;-52
2022/03/17 09:59:58;;;;;;;51.78;32.38;;;12.90;99.90;;;;;;5011185;28;20381;-52
2022/03/17 10:02:25;;;;;;;46.83;29.13;;;13.00;99.90;;;;;;4993903;28;20816;-52
2022/03/17 10:04:52;;;;;;;47.30;28.43;;;13.20;99.90;;;;;;5011108;28;20385;-52
2022/03/17 10:07:23;;;;;;;53.78;30.15;;;13.40;99.90;;;;;;5011398;28;20440;-52
2022/03/17 10:09:49;;;;;;;46.20;28.57;;;13.70;99.90;;;;;;4992796;28;20442;-52
2022/03/17 10:12:20;;;;;;;46.30;28.88;;;13.90;99.90;;;;;;5011385;28;20517;-52
2022/03/17 10:14:51;;;;;;;46.72;28.85;;;13.60;99.90;;;;;;5010513;28;20397;-52
2022/03/17 10:17:36;;;;;;;48.65;28.95;;;13.40;99.90;;;;;;5011232;28;20459;-52
2022/03/17 10:20:25;;;;;;;52.53;29.48;;;13.50;99.90;;;;;;5010721;28;20456;-52
2022/03/17 10:22:53;;;;;;;48.03;28.95;;;13.50;99.90;;;;;;4993158;28;20390;-52
2022/03/17 10:25:21;;;;;;;47.33;29.15;;;13.40;99.90;;;;;;5011068;28;20378;-52
2022/03/17 10:27:54;;;;;;;44.90;28.73;;;13.40;99.90;;;;;;5008931;28;20490;-52
2022/03/17 10:30:34;;;;;;;50.38;28.42;;;13.40;99.90;;;;;;5011143;28;20419;-52
2022/03/17 10:33:03;;;;;;;50.80;29.35;;;13.50;99.90;;;;;;5010947;28;20452;-52
2022/03/17 10:35:35;;;;;;;45.80;27.67;;;13.40;99.90;;;;;;5009854;28;20451;-52
2022/03/17 10:38:15;;;;;;;44.78;28.45;;;13.40;99.90;;;;;;5011105;28;20437;-52
2022/03/17 10:40:41;;;;;;;42.38;26.80;;;13.60;99.90;;;;;;5009857;28;20374;-52
2022/03/17 10:43:24;;;;;;;43.67;27.17;;;13.80;99.90;;;;;;5010387;28;20905;-51
2022/03/17 10:46:13;;;;;;;41.85;27.05;;;13.70;99.90;;;;;;5010222;28;20416;-53
2022/03/17 10:48:55;;;;;;;43.78;28.35;;;13.70;99.90;;;;;;5009732;28;20944;-51
2022/03/17 10:51:36;;;;;;;43.92;27.10;;;13.70;99.90;;;;;;5010419;28;20940;-51
2022/03/17 10:54:11;;;;;;;44.70;26.35;;;13.60;99.90;;;;;;5010771;28;20393;-51
2022/03/17 10:56:38;;;;;;;43.78;26.15;;;13.50;99.90;;;;;;5009779;28;20446;-51
2022/03/17 10:59:08;;;;;;;49.60;27.93;;;13.60;99.90;;;;;;5011108;28;20809;-51
2022/03/17 11:01:37;;;;;;;41.63;27.50;;;13.70;99.90;;;;;;5009785;28;20932;-51
2022/03/17 11:04:07;;;;;;;47.83;27.27;;;14.00;99.90;;;;;;5010105;28;20382;-52
2022/03/17 11:06:34;;;;;;;45.13;28.75;;;13.90;99.90;;;;;;5009582;28;20408;-52
2022/03/17 11:09:01;;;;;;;47.63;27.58;;;13.70;99.90;;;;;;5010603;28;20840;-52
2022/03/17 11:11:30;;;;;;;47.05;28.58;;;13.60;99.90;;;;;;5009065;28;20386;-52
2022/03/17 11:13:59;;;;;;;49.72;28.50;;;13.50;99.90;;;;;;5010247;28;20389;-52
2022/03/17 11:16:40;;;;;;;44.03;26.88;;;13.60;99.90;;;;;;5010608;28;20370;-52
2022/03/17 11:19:12;;;;;;;44.05;27.60;;;13.60;99.90;;;;;;5009860;28;20415;-52
2022/03/17 11:21:38;;;;;;;45.47;27.50;;;13.50;99.90;;;;;;5009273;28;20520;-52
2022/03/17 11:24:05;;;;;;;43.83;26.53;;;13.40;99.90;;;;;;5008524;28;20492;-52
2022/03/17 11:26:37;;;;;;;54.80;27.63;;;13.00;99.90;;;;;;5009565;28;20957;-52
2022/03/17 11:29:13;;;;;;;46.50;27.60;;;12.80;99.90;;;;;;5009823;28;20447;-51
2022/03/17 11:31:54;;;;;;;43.45;27.42;;;12.70;99.90;;;;;;5008874;28;20396;-52
2022/03/17 11:34:39;;;;;;;43.55;26.33;;;12.80;99.90;;;;;;5009501;28;20758;-52
2022/03/17 11:37:22;;;;;;;47.63;29.37;;;12.70;99.90;;;;;;5009912;28;20401;-52
2022/03/17 11:39:58;;;;;;;50.05;29.40;;;12.70;99.90;;;;;;5008992;28;20415;-52
2022/03/17 11:42:40;;;;;;;49.88;28.20;;;12.70;99.90;;;;;;5009745;28;20862;-52
2022/03/17 11:45:15;;;;;;;49.70;30.10;;;12.60;99.90;;;;;;5009819;28;20464;-52
2022/03/17 11:47:56;;;;;;;45.15;27.65;;;12.80;99.90;;;;;;5009037;28;20420;-52
2022/03/17 11:50:34;;;;;;;49.15;30.67;;;13.00;99.90;;;;;;5009632;28;20896;-52
2022/03/17 11:53:20;;;;;;;48.15;28.85;;;12.70;99.90;;;;;;5009733;28;20392;-52
2022/03/17 11:55:46;;;;;;;49.05;28.30;;;13.00;99.90;;;;;;5009071;28;20412;-52
2022/03/17 11:58:25;;;;;;;50.43;28.70;;;13.20;99.90;;;;;;5010230;28;20432;-51
2022/03/17 12:01:13;;;;;;;49.67;29.08;;;13.20;99.90;;;;;;5009163;28;20393;-52
2022/03/17 12:03:45;;;;;;;53.33;28.90;;;13.30;99.90;;;;;;5008921;28;20421;-52
2022/03/17 12:06:21;;;;;;;48.17;29.23;;;13.10;99.90;;;;;;5009645;28;20408;-51
2022/03/17 12:08:47;;;;;;;45.97;27.37;;;13.00;99.90;;;;;;5008908;28;20866;-51
2022/03/17 12:11:14;;;;;;;50.85;27.40;;;12.90;99.90;;;;;;5009286;28;20385;-51
2022/03/17 12:14:03;;;;;;;50.67;29.42;;;12.90;99.90;;;;;;5008727;28;20888;-51
2022/03/17 12:16:47;;;;;;;49.15;27.63;;;12.90;99.90;;;;;;4991551;28;20397;-52
2022/03/17 12:19:37;;;;;;;49.45;28.45;;;13.00;99.90;;;;;;5009241;28;20444;-52
2022/03/17 12:22:05;;;;;;;47.65;28.50;;;13.10;99.90;;;;;;5011583;28;20434;-52
2022/03/17 12:24:52;;;;;;;46.78;28.40;;;13.30;99.90;;;;;;5012641;28;20467;-53
2022/03/17 12:27:22;;;;;;;44.60;27.13;;;13.30;99.90;;;;;;5013036;28;20744;-53
2022/03/17 12:29:53;;;;;;;43.00;26.45;;;13.40;99.90;;;;;;5012363;28;20412;-53
2022/03/17 12:32:21;;;;;;;42.20;27.10;;;13.60;99.90;;;;;;5013148;28;20404;-53
2022/03/17 12:34:52;;;;;;;44.75;27.55;;;13.80;99.90;;;;;;5012670;28;20484;-53
2022/03/17 12:37:19;;;;;;;43.90;26.58;;;13.80;99.90;;;;;;5013285;28;20564;-53
2022/03/17 12:40:12;;;;;;;44.25;27.98;;;13.90;99.90;;;;;;5012882;28;20385;-53
2022/03/17 12:42:40;;;;;;;47.88;27.08;;;13.80;99.90;;;;;;5001931;28;20429;-53
2022/03/17 12:45:14;;;;;;;47.85;27.67;;;13.70;99.90;;;;;;5011508;28;20912;-51
2022/03/17 12:47:46;;;;;;;45.63;27.80;;;13.40;99.90;;;;;;5012254;28;20449;-53
2022/03/17 12:50:20;;;;;;;42.22;27.02;;;13.40;99.90;;;;;;5012695;28;20524;-53
2022/03/17 12:52:47;;;;;;;48.63;28.38;;;13.60;99.90;;;;;;5006392;28;20415;-53
2022/03/17 12:55:15;;;;;;;44.90;26.65;;;13.60;99.90;;;;;;5012950;28;20392;-54